This is the latest recevied weather packets stored in our database for station/object SP8PUB-10. If no packets are shown the sender has not sent any weather packets the latest 10 day(s).
| Time | Temp. | Humidity | Pressure | Rain* | Wind** | Luminosity | Snow |
|---|---|---|---|---|---|---|---|
| 1777500244 | 0.56° C | 72% | 1029.4 hPa | - | - | - | - |
| 1777498450 | 1.11° C | 70% | 1029.2 hPa | - | - | - | - |
| 1777496650 | 1.11° C | 68% | 1029.1 hPa | - | - | - | - |
| 1777494853 | 2.22° C | 65% | 1028.8 hPa | - | - | - | - |
| 1777493949 | 2.22° C | 64% | 1028.6 hPa | - | - | - | - |
| 1777491249 | 2.78° C | 62% | 1028.5 hPa | - | - | - | - |
| 1777490349 | 2.78° C | 61% | 1028.4 hPa | - | - | - | - |
| 1777489449 | 3.33° C | 60% | 1028.3 hPa | - | - | - | - |
| 1777487649 | 3.89° C | 58% | 1028.1 hPa | - | - | - | - |
| 1777486748 | 4.44° C | 57% | 1027.9 hPa | - | - | - | - |
| 1777484048 | 5.56° C | 54% | 1027.6 hPa | - | - | - | - |
| 1777483148 | 6.11° C | 52% | 1027.3 hPa | - | - | - | - |
| 1777482248 | 6.67° C | 51% | 1027.2 hPa | - | - | - | - |
| 1777480448 | 7.78° C | 48% | 1026.7 hPa | - | - | - | - |
| 1777479548 | 7.78° C | 48% | 1026.8 hPa | - | - | - | - |
| 1777475947 | 8.89° C | 45% | 1026.3 hPa | - | - | - | - |
| 1777473247 | 10.56° C | 41% | 1025.9 hPa | - | - | - | - |
| 1777472347 | 9.44° C | 42% | 1026.1 hPa | - | - | - | - |
| 1777471447 | 10.56° C | 41% | 1026 hPa | - | - | - | - |
| 1777469646 | 11.11° C | 40% | 1025.8 hPa | - | - | - | - |
| 1777468746 | 10.56° C | 40% | 1025.7 hPa | - | - | - | - |
| 1777467846 | 10.56° C | 40% | 1025.6 hPa | - | - | - | - |
| 1777466046 | 11.11° C | 39% | 1025.6 hPa | - | - | - | - |
| 1777465146 | 11.11° C | 38% | 1025.6 hPa | - | - | - | - |
| 1777464246 | 10° C | 39% | 1025.6 hPa | - | - | - | - |
* Rain since midnight (hover to see other rain measurements)
** Current wind speed in m/s (hover to see current wind gust speed)